createdAt,value
2022-12-24T00:01:19.316Z,11.96
2022-12-24T00:03:46.278Z,11.38
2022-12-24T00:06:21.207Z,11.10
2022-12-24T00:08:51.196Z,10.91
2022-12-24T00:11:18.108Z,11.00
2022-12-24T00:13:44.996Z,10.89
2022-12-24T00:16:12.000Z,10.73
2022-12-24T00:18:45.188Z,10.77
2022-12-24T00:21:14.168Z,10.80
2022-12-24T00:23:51.186Z,11.48
2022-12-24T00:26:21.080Z,11.31
2022-12-24T00:28:53.925Z,11.03
2022-12-24T00:31:20.977Z,11.55
2022-12-24T00:33:51.837Z,11.33
2022-12-24T00:36:21.466Z,11.11
2022-12-24T00:38:51.740Z,10.96
2022-12-24T00:41:30.408Z,10.91
2022-12-24T00:44:06.629Z,11.02
2022-12-24T00:46:37.684Z,10.89
2022-12-24T00:49:07.939Z,10.86
2022-12-24T00:51:38.232Z,10.74
2022-12-24T00:54:05.614Z,10.67
2022-12-24T00:56:33.042Z,10.98
2022-12-24T00:59:00.845Z,11.00
2022-12-24T01:01:28.080Z,10.81
2022-12-24T01:04:15.105Z,10.91
2022-12-24T01:06:41.821Z,10.65
2022-12-24T01:09:08.648Z,10.41
2022-12-24T01:11:35.404Z,10.35
2022-12-24T01:14:03.503Z,10.61
2022-12-24T01:16:30.508Z,10.44
2022-12-24T01:18:57.336Z,10.42
2022-12-24T01:21:24.103Z,10.15
2022-12-24T01:23:50.939Z,10.13
2022-12-24T01:26:20.963Z,10.01
2022-12-24T01:28:47.842Z,9.98
2022-12-24T01:31:17.758Z,10.04
2022-12-24T01:33:49.219Z,9.98
2022-12-24T01:36:16.521Z,9.89
2022-12-24T01:38:45.977Z,9.80
2022-12-24T01:41:35.572Z,9.91
2022-12-24T01:44:20.883Z,9.92
2022-12-24T01:46:49.906Z,10.03
2022-12-24T01:49:20.783Z,10.10
2022-12-24T01:51:52.656Z,10.52
2022-12-24T01:54:58.692Z,10.77
2022-12-24T01:58:02.013Z,10.61
2022-12-24T02:00:29.636Z,10.32
2022-12-24T02:02:56.943Z,10.16
2022-12-24T02:05:58.753Z,10.10
2022-12-24T02:08:40.188Z,9.97
2022-12-24T02:11:13.795Z,10.18
2022-12-24T02:13:41.937Z,10.28
2022-12-24T02:16:50.594Z,10.30
2022-12-24T02:19:52.168Z,10.28
2022-12-24T02:22:35.049Z,10.18
2022-12-24T02:25:29.427Z,10.18
2022-12-24T02:28:04.251Z,10.00
2022-12-24T02:30:38.298Z,9.92
2022-12-24T02:33:32.147Z,10.13
2022-12-24T02:36:05.063Z,10.01
2022-12-24T02:38:34.941Z,10.31
2022-12-24T02:41:09.687Z,10.12
2022-12-24T02:43:41.215Z,10.12
2022-12-24T02:46:15.792Z,10.30
2022-12-24T02:48:48.946Z,10.48
2022-12-24T02:51:25.521Z,10.36
2022-12-24T02:53:56.593Z,10.47
2022-12-24T02:56:43.204Z,10.32
2022-12-24T02:59:48.377Z,10.15
2022-12-24T03:02:44.938Z,10.13
2022-12-24T03:05:41.243Z,10.04
2022-12-24T03:08:22.764Z,9.98
2022-12-24T03:11:22.608Z,9.99
2022-12-24T03:13:51.369Z,10.03
2022-12-24T03:16:24.641Z,9.97
2022-12-24T03:18:53.637Z,9.91
2022-12-24T03:21:35.362Z,9.97
2022-12-24T03:24:08.440Z,9.98
2022-12-24T03:26:36.963Z,9.94
2022-12-24T03:29:13.223Z,10.72
2022-12-24T03:32:13.642Z,11.44
2022-12-24T03:34:40.660Z,11.75
2022-12-24T03:37:10.566Z,11.96
2022-12-24T03:39:46.253Z,12.14
2022-12-24T03:42:13.134Z,12.22
2022-12-24T03:44:49.178Z,12.39
2022-12-24T03:47:15.993Z,12.31
2022-12-24T03:49:42.881Z,12.22
2022-12-24T03:52:13.521Z,11.89
2022-12-24T03:54:43.221Z,11.28
2022-12-24T03:57:10.028Z,11.53
2022-12-24T03:59:44.106Z,11.67
2022-12-24T04:02:18.626Z,11.90
2022-12-24T04:04:46.389Z,12.31
2022-12-24T04:07:17.293Z,12.33
2022-12-24T04:09:47.638Z,11.77
2022-12-24T04:12:17.825Z,12.05
2022-12-24T04:14:46.372Z,11.95
2022-12-24T04:17:13.428Z,12.21
2022-12-24T04:19:40.515Z,11.78
2022-12-24T04:22:08.942Z,11.63
2022-12-24T04:24:41.135Z,11.23
2022-12-24T04:27:12.133Z,11.53
2022-12-24T04:29:41.881Z,11.30
2022-12-24T04:32:11.496Z,11.37
2022-12-24T04:34:39.355Z,11.69
2022-12-24T04:37:06.176Z,11.92
2022-12-24T04:39:34.879Z,12.09
2022-12-24T04:42:01.575Z,12.02
2022-12-24T04:44:29.279Z,12.20
2022-12-24T04:46:57.115Z,12.31
2022-12-24T04:49:29.342Z,12.64
2022-12-24T04:51:58.420Z,12.79
2022-12-24T04:54:29.129Z,12.78
2022-12-24T04:57:07.231Z,12.84
2022-12-24T04:59:37.169Z,12.30
2022-12-24T05:02:04.881Z,12.16
2022-12-24T05:04:32.226Z,12.40
2022-12-24T05:06:59.225Z,11.94
2022-12-24T05:09:28.754Z,11.90
2022-12-24T05:11:58.816Z,12.23
2022-12-24T05:14:29.614Z,12.44
2022-12-24T05:16:57.572Z,12.65
2022-12-24T05:19:28.105Z,12.72
2022-12-24T05:22:16.545Z,12.70
2022-12-24T05:25:04.384Z,12.83
2022-12-24T05:27:31.892Z,12.62
2022-12-24T05:29:58.715Z,12.43
2022-12-24T05:32:29.617Z,12.75
2022-12-24T05:34:56.582Z,12.91
2022-12-24T05:37:23.359Z,12.94
2022-12-24T05:39:51.508Z,12.82
2022-12-24T05:42:18.464Z,12.87
2022-12-24T05:44:47.604Z,12.74
2022-12-24T05:47:20.326Z,12.45
2022-12-24T05:49:47.084Z,12.07
2022-12-24T05:52:13.880Z,12.30
2022-12-24T05:54:41.025Z,12.45
2022-12-24T05:57:13.603Z,12.78
2022-12-24T05:59:47.080Z,12.41
2022-12-24T06:02:15.409Z,12.34
2022-12-24T06:04:42.322Z,12.49
2022-12-24T06:07:11.745Z,12.13
2022-12-24T06:09:38.479Z,11.78
2022-12-24T06:12:05.694Z,12.18
2022-12-24T06:14:33.219Z,12.34
2022-12-24T06:17:00.105Z,12.46
2022-12-24T06:19:27.063Z,12.62
2022-12-24T06:22:00.921Z,12.76
2022-12-24T06:24:29.880Z,12.71
2022-12-24T06:26:59.285Z,12.57
2022-12-24T06:29:38.435Z,12.03
2022-12-24T06:32:05.380Z,11.79
2022-12-24T06:34:32.438Z,11.68
2022-12-24T06:36:59.200Z,11.35
2022-12-24T06:39:29.818Z,11.25
2022-12-24T06:42:01.944Z,11.20
2022-12-24T06:44:28.852Z,11.07
2022-12-24T06:46:56.098Z,11.07
2022-12-24T06:49:32.870Z,10.87
2022-12-24T06:52:02.986Z,11.16
2022-12-24T06:54:30.043Z,11.53
2022-12-24T06:57:10.597Z,11.75
2022-12-24T06:59:40.869Z,11.43
2022-12-24T07:02:09.342Z,10.90
2022-12-24T07:04:36.466Z,10.68
2022-12-24T07:07:07.022Z,10.62
2022-12-24T07:09:46.219Z,10.68
2022-12-24T07:12:14.138Z,11.41
2022-12-24T07:14:46.332Z,11.57
2022-12-24T07:17:21.597Z,11.10
2022-12-24T07:19:48.443Z,11.60
2022-12-24T07:22:18.889Z,11.88
2022-12-24T07:24:51.111Z,11.99
2022-12-24T07:27:17.994Z,11.37
2022-12-24T07:29:47.796Z,11.33
2022-12-24T07:32:15.098Z,11.86
2022-12-24T07:34:42.449Z,11.79
2022-12-24T07:37:09.407Z,11.47
2022-12-24T07:39:39.005Z,11.72
2022-12-24T07:42:14.759Z,11.99
2022-12-24T07:44:43.258Z,11.69
2022-12-24T07:47:11.886Z,11.44
2022-12-24T07:49:41.069Z,11.19
2022-12-24T07:52:11.928Z,11.05
2022-12-24T07:54:38.739Z,10.88
2022-12-24T07:57:10.409Z,11.03
2022-12-24T07:59:40.010Z,11.34
2022-12-24T08:02:09.922Z,11.28
2022-12-24T08:04:41.119Z,11.06
2022-12-24T08:07:08.176Z,11.22
2022-12-24T08:09:45.705Z,11.55
2022-12-24T08:12:13.517Z,11.72
2022-12-24T08:14:43.725Z,12.03
2022-12-24T08:17:12.772Z,11.84
2022-12-24T08:19:39.504Z,12.28
2022-12-24T08:22:06.279Z,12.20
2022-12-24T08:24:49.625Z,12.39
2022-12-24T08:27:16.619Z,12.49
2022-12-24T08:29:44.083Z,12.71
2022-12-24T08:32:11.199Z,12.35
2022-12-24T08:34:38.039Z,12.52
2022-12-24T08:37:05.097Z,12.93
2022-12-24T08:39:36.103Z,12.87
2022-12-24T08:42:02.913Z,12.80
2022-12-24T08:44:36.003Z,12.54
2022-12-24T08:47:02.957Z,12.00
2022-12-24T08:49:29.848Z,11.74
2022-12-24T08:52:01.196Z,11.43
2022-12-24T08:54:31.193Z,11.40
2022-12-24T08:57:05.309Z,11.21
2022-12-24T08:59:34.863Z,11.17
2022-12-24T09:02:02.957Z,11.32
2022-12-24T09:04:31.609Z,11.82
2022-12-24T09:06:58.729Z,12.01
2022-12-24T09:09:25.651Z,11.99
2022-12-24T09:11:53.557Z,12.09
2022-12-24T09:14:20.507Z,12.22
2022-12-24T09:16:47.424Z,12.19
2022-12-24T09:19:14.650Z,12.13
2022-12-24T09:21:41.629Z,11.81
2022-12-24T09:24:11.670Z,11.79
2022-12-24T09:26:41.552Z,12.03
2022-12-24T09:29:10.876Z,12.24
2022-12-24T09:31:37.852Z,12.17
2022-12-24T09:34:17.097Z,12.21
2022-12-24T09:36:46.462Z,12.36
2022-12-24T09:39:15.044Z,12.38
2022-12-24T09:42:16.798Z,12.30
2022-12-24T09:45:05.955Z,12.61
2022-12-24T09:47:43.910Z,12.60
2022-12-24T09:50:42.948Z,12.00
2022-12-24T09:53:31.202Z,11.80
2022-12-24T09:56:04.176Z,11.48
2022-12-24T09:58:34.139Z,11.58
2022-12-24T10:01:01.094Z,11.92
2022-12-24T10:03:28.370Z,11.94
2022-12-24T10:06:17.246Z,12.24
2022-12-24T10:08:59.667Z,12.66
2022-12-24T10:11:38.883Z,12.47
2022-12-24T10:14:23.974Z,12.55
2022-12-24T10:17:27.306Z,12.74
2022-12-24T10:20:33.232Z,12.95
2022-12-24T10:23:11.809Z,13.16
2022-12-24T10:25:52.617Z,13.01
2022-12-24T10:28:28.960Z,13.00
2022-12-24T10:31:08.496Z,12.68
2022-12-24T10:33:45.356Z,12.34
2022-12-24T10:36:27.239Z,12.93
2022-12-24T10:38:54.205Z,13.12
2022-12-24T10:41:22.306Z,12.80
2022-12-24T10:43:49.881Z,12.52
2022-12-24T10:46:26.399Z,12.84
2022-12-24T10:49:08.203Z,12.71
2022-12-24T10:51:58.695Z,12.28
2022-12-24T10:54:29.778Z,12.35
2022-12-24T10:57:02.970Z,12.73
2022-12-24T10:59:37.047Z,12.76
2022-12-24T11:02:04.368Z,13.14
2022-12-24T11:04:33.174Z,13.22
2022-12-24T11:07:14.528Z,13.14
2022-12-24T11:09:56.180Z,13.27
2022-12-24T11:12:30.042Z,13.31
2022-12-24T11:15:33.147Z,13.16
2022-12-24T11:18:04.197Z,13.14
2022-12-24T11:20:38.124Z,13.08
2022-12-24T11:23:05.559Z,13.33
2022-12-24T11:25:39.040Z,13.43
2022-12-24T11:28:24.193Z,13.50
2022-12-24T11:31:06.071Z,13.40
2022-12-24T11:33:47.217Z,13.38
2022-12-24T11:36:20.858Z,13.31
2022-12-24T11:38:59.452Z,13.52
2022-12-24T11:41:39.436Z,13.25
2022-12-24T11:44:12.130Z,13.39
2022-12-24T11:46:42.258Z,13.46
2022-12-24T11:49:12.257Z,13.62
2022-12-24T11:51:41.130Z,13.53
2022-12-24T11:54:22.655Z,13.22
2022-12-24T11:57:00.118Z,13.39
2022-12-24T11:59:48.843Z,13.31
2022-12-24T12:02:43.437Z,13.56
2022-12-24T12:05:16.715Z,13.42
2022-12-24T12:07:47.320Z,13.40
2022-12-24T12:10:29.327Z,13.35
2022-12-24T12:13:15.638Z,12.92
2022-12-24T12:15:50.649Z,12.92
2022-12-24T12:18:30.358Z,13.27
2022-12-24T12:21:11.733Z,13.23
2022-12-24T12:23:53.482Z,13.34
2022-12-24T12:26:29.313Z,13.23
2022-12-24T12:29:34.448Z,12.86
2022-12-24T12:32:13.656Z,12.86
2022-12-24T12:34:57.300Z,13.25
2022-12-24T12:37:38.346Z,13.38
2022-12-24T12:40:16.561Z,13.08
2022-12-24T12:43:07.496Z,13.20
2022-12-24T12:45:46.919Z,13.08
2022-12-24T12:48:36.121Z,13.03
2022-12-24T12:51:16.951Z,13.21
2022-12-24T12:54:05.375Z,13.31
2022-12-24T12:56:37.531Z,13.43
2022-12-24T12:59:15.480Z,13.38
2022-12-24T13:01:53.472Z,13.28
2022-12-24T13:04:30.944Z,13.45
2022-12-24T13:07:25.781Z,13.44
2022-12-24T13:10:01.680Z,13.07
2022-12-24T13:12:57.702Z,12.33
2022-12-24T13:15:33.342Z,12.60
2022-12-24T13:18:31.395Z,13.03
2022-12-24T13:20:58.456Z,13.12
2022-12-24T13:23:31.078Z,13.25
2022-12-24T13:26:00.883Z,13.43
2022-12-24T13:28:31.290Z,13.48
2022-12-24T13:31:23.898Z,13.05
2022-12-24T13:33:56.871Z,13.03
2022-12-24T13:36:26.930Z,12.98
2022-12-24T13:38:59.225Z,12.78
2022-12-24T13:41:38.305Z,12.30
2022-12-24T13:44:18.719Z,12.35
2022-12-24T13:47:00.509Z,12.33
2022-12-24T13:49:44.306Z,12.84
2022-12-24T13:52:11.818Z,12.71
2022-12-24T13:54:47.009Z,12.55
2022-12-24T13:57:33.304Z,12.76
2022-12-24T14:00:13.458Z,12.90
2022-12-24T14:03:07.598Z,13.18
2022-12-24T14:05:49.993Z,13.03
2022-12-24T14:08:31.820Z,12.86
2022-12-24T14:10:59.987Z,12.94
2022-12-24T14:13:41.902Z,12.79
2022-12-24T14:16:18.143Z,12.61
2022-12-24T14:19:00.468Z,12.70
2022-12-24T14:21:34.198Z,12.83
2022-12-24T14:24:17.992Z,12.87
2022-12-24T14:26:54.185Z,13.06
2022-12-24T14:29:30.505Z,13.04
2022-12-24T14:32:05.750Z,12.92
2022-12-24T14:34:35.661Z,12.86
2022-12-24T14:37:05.794Z,12.91
2022-12-24T14:39:47.566Z,13.21
2022-12-24T14:42:45.773Z,13.07
2022-12-24T14:45:21.450Z,13.23
2022-12-24T14:48:06.824Z,13.28
2022-12-24T14:50:41.404Z,13.12
2022-12-24T14:53:37.508Z,12.98
2022-12-24T14:56:26.044Z,12.96
2022-12-24T14:58:53.623Z,12.85
2022-12-24T15:01:29.521Z,12.83
2022-12-24T15:04:12.755Z,12.88
2022-12-24T15:06:48.407Z,13.07
2022-12-24T15:09:41.191Z,12.91
2022-12-24T15:12:12.959Z,12.65
2022-12-24T15:14:46.006Z,13.00
2022-12-24T15:17:13.658Z,12.98
2022-12-24T15:19:49.346Z,12.80
2022-12-24T15:22:31.590Z,13.12
2022-12-24T15:25:00.950Z,13.07
2022-12-24T15:27:38.831Z,13.23
2022-12-24T15:30:15.884Z,13.30
2022-12-24T15:32:44.640Z,13.41
2022-12-24T15:35:34.727Z,13.48
2022-12-24T15:38:06.939Z,13.44
2022-12-24T15:40:35.202Z,13.36
2022-12-24T15:43:03.538Z,13.23
2022-12-24T15:45:39.691Z,13.12
2022-12-24T15:48:18.413Z,13.24
2022-12-24T15:50:49.042Z,13.39
2022-12-24T15:53:49.170Z,13.13
2022-12-24T15:56:28.265Z,12.91
2022-12-24T15:59:28.213Z,13.05
2022-12-24T16:02:15.440Z,12.57
2022-12-24T16:04:45.061Z,12.49
2022-12-24T16:07:49.863Z,12.77
2022-12-24T16:10:36.241Z,12.90
2022-12-24T16:13:03.255Z,13.26
2022-12-24T16:15:36.608Z,12.79
2022-12-24T16:18:03.752Z,13.00
2022-12-24T16:20:35.133Z,12.61
2022-12-24T16:23:02.095Z,12.47
2022-12-24T16:25:29.328Z,12.76
2022-12-24T16:28:00.121Z,12.89
2022-12-24T16:30:30.535Z,12.87
2022-12-24T16:32:57.486Z,12.96
2022-12-24T16:35:37.282Z,12.92
2022-12-24T16:38:11.101Z,12.70
2022-12-24T16:40:42.130Z,12.25
2022-12-24T16:43:35.030Z,12.39
2022-12-24T16:46:07.404Z,12.30
2022-12-24T16:48:39.877Z,12.27
2022-12-24T16:51:14.592Z,12.27
2022-12-24T16:53:50.838Z,12.21
2022-12-24T16:56:24.443Z,12.47
2022-12-24T16:58:51.352Z,12.11
2022-12-24T17:03:52.101Z,12.31
2022-12-24T17:06:24.782Z,12.35
2022-12-24T17:08:54.499Z,12.70
2022-12-24T17:11:23.929Z,12.78
2022-12-24T17:13:50.885Z,12.81
2022-12-24T17:16:19.635Z,13.01
2022-12-24T17:18:46.601Z,12.98
2022-12-24T17:21:14.159Z,12.87
2022-12-24T17:23:42.133Z,12.95
2022-12-24T17:26:14.598Z,12.89
2022-12-24T17:28:43.934Z,12.88
2022-12-24T17:31:24.495Z,12.63
2022-12-24T17:33:56.087Z,12.69
2022-12-24T17:36:23.221Z,12.82
2022-12-24T17:38:50.193Z,12.54
2022-12-24T17:41:19.632Z,12.78
2022-12-24T17:43:49.899Z,12.90
2022-12-24T17:46:25.671Z,12.50
2022-12-24T17:48:56.068Z,12.76
2022-12-24T17:51:28.509Z,12.33
2022-12-24T17:53:56.835Z,12.55
2022-12-24T17:56:33.488Z,12.54
2022-12-24T17:59:04.068Z,12.46
2022-12-24T18:01:43.269Z,12.46
2022-12-24T18:04:15.166Z,12.48
2022-12-24T18:06:49.758Z,12.23
2022-12-24T18:09:33.310Z,12.21
2022-12-24T18:12:20.590Z,12.36
2022-12-24T18:14:50.447Z,12.49
2022-12-24T18:17:18.401Z,12.44
2022-12-24T18:19:52.822Z,12.57
2022-12-24T18:22:19.833Z,12.20
2022-12-24T18:24:46.839Z,12.27
2022-12-24T18:27:22.783Z,12.32
2022-12-24T18:29:51.131Z,12.09
2022-12-24T18:32:23.819Z,12.90
2022-12-24T18:34:53.987Z,13.07
2022-12-24T18:37:23.229Z,12.68
2022-12-24T18:39:53.040Z,12.72
2022-12-24T18:42:23.095Z,12.83
2022-12-24T18:44:50.031Z,12.60
2022-12-24T18:47:25.273Z,12.43
2022-12-24T18:49:52.324Z,12.44
2022-12-24T18:52:22.645Z,12.56
2022-12-24T18:54:51.540Z,12.70
2022-12-24T18:57:18.741Z,12.69
2022-12-24T18:59:51.614Z,12.38
2022-12-24T19:02:26.657Z,12.48
2022-12-24T19:04:56.944Z,12.28
2022-12-24T19:07:23.879Z,11.82
2022-12-24T19:09:56.221Z,11.60
2022-12-24T19:12:23.178Z,11.82
2022-12-24T19:14:54.441Z,12.19
2022-12-24T19:17:21.348Z,12.20
2022-12-24T19:19:58.786Z,12.34
2022-12-24T19:22:29.073Z,12.60
2022-12-24T19:24:59.796Z,12.50
2022-12-24T19:27:26.644Z,12.08
2022-12-24T19:29:56.346Z,12.33
2022-12-24T19:32:26.443Z,12.83
2022-12-24T19:34:54.986Z,13.08
2022-12-24T19:37:21.998Z,13.01
2022-12-24T19:39:49.102Z,12.63
2022-12-24T19:42:18.501Z,12.52
2022-12-24T19:44:52.577Z,12.67
2022-12-24T19:47:19.578Z,12.28
2022-12-24T19:49:53.444Z,12.50
2022-12-24T19:52:20.561Z,12.60
2022-12-24T19:54:47.649Z,12.69
2022-12-24T19:57:14.730Z,12.55
2022-12-24T19:59:45.051Z,12.31
2022-12-24T20:02:12.235Z,12.47
2022-12-24T20:04:40.882Z,12.09
2022-12-24T20:07:10.606Z,11.82
2022-12-24T20:09:40.724Z,11.94
2022-12-24T20:12:10.539Z,12.29
2022-12-24T20:14:37.421Z,12.33
2022-12-24T20:17:04.560Z,12.27
2022-12-24T20:19:31.726Z,11.99
2022-12-24T20:21:58.618Z,11.88
2022-12-24T20:24:28.847Z,12.15
2022-12-24T20:26:55.666Z,12.45
2022-12-24T20:29:26.758Z,12.32
2022-12-24T20:31:53.874Z,12.11
2022-12-24T20:34:25.204Z,12.32
2022-12-24T20:36:55.554Z,12.39
2022-12-24T20:39:22.503Z,12.49
2022-12-24T20:41:50.771Z,12.28
2022-12-24T20:44:22.952Z,12.40
2022-12-24T20:47:02.744Z,12.48
2022-12-24T20:49:54.861Z,12.71
2022-12-24T20:52:25.373Z,12.40
2022-12-24T20:54:54.649Z,12.13
2022-12-24T20:57:25.926Z,11.97
2022-12-24T20:59:56.937Z,11.49
2022-12-24T21:02:26.372Z,11.52
2022-12-24T21:05:01.669Z,11.71
2022-12-24T21:07:29.252Z,11.50
2022-12-24T21:10:02.863Z,11.56
2022-12-24T21:12:51.503Z,11.56
2022-12-24T21:15:21.376Z,11.74
2022-12-24T21:17:55.023Z,11.44
2022-12-24T21:20:23.196Z,11.34
2022-12-24T21:22:50.274Z,11.15
2022-12-24T21:25:24.086Z,11.09
2022-12-24T21:28:02.142Z,11.08
2022-12-24T21:30:32.707Z,11.30
2022-12-24T21:33:04.935Z,11.23
2022-12-24T21:35:37.476Z,11.65
2022-12-24T21:38:07.797Z,12.16
2022-12-24T21:40:37.276Z,12.23
2022-12-24T21:43:05.994Z,12.39
2022-12-24T21:45:41.944Z,12.42
2022-12-24T21:48:31.627Z,12.33
2022-12-24T21:50:58.908Z,12.13
2022-12-24T21:53:53.549Z,12.47
2022-12-24T21:56:26.117Z,12.68
2022-12-24T21:59:14.405Z,12.54
2022-12-24T22:01:43.083Z,12.70
2022-12-24T22:04:14.446Z,12.89
2022-12-24T22:07:05.921Z,12.30
2022-12-24T22:09:56.402Z,11.70
2022-12-24T22:12:33.211Z,11.76
2022-12-24T22:15:03.451Z,12.05
2022-12-24T22:17:34.001Z,12.22
2022-12-24T22:20:03.181Z,12.45
2022-12-24T22:22:30.541Z,12.65
2022-12-24T22:25:04.204Z,12.54
2022-12-24T22:27:31.821Z,12.67
2022-12-24T22:30:00.091Z,12.76
2022-12-24T22:32:29.394Z,12.09
2022-12-24T22:34:59.240Z,11.75
2022-12-24T22:37:31.678Z,11.71
2022-12-24T22:40:04.021Z,12.18
2022-12-24T22:42:41.259Z,12.60
2022-12-24T22:45:22.210Z,12.73
2022-12-24T22:47:51.077Z,12.33
2022-12-24T22:50:19.985Z,12.17
2022-12-24T22:52:47.093Z,11.95
2022-12-24T22:55:14.210Z,11.82
2022-12-24T22:57:50.498Z,12.11
2022-12-24T23:00:39.107Z,12.54
2022-12-24T23:03:06.788Z,12.37
2022-12-24T23:05:35.785Z,12.22
2022-12-24T23:08:03.330Z,11.87
2022-12-24T23:10:31.654Z,11.90
2022-12-24T23:13:17.417Z,11.56
2022-12-24T23:15:47.125Z,11.67
2022-12-24T23:18:16.962Z,12.23
2022-12-24T23:20:48.084Z,12.21
2022-12-24T23:23:21.211Z,11.94
2022-12-24T23:25:51.095Z,11.94
2022-12-24T23:28:21.047Z,12.28
2022-12-24T23:31:08.339Z,12.27
2022-12-24T23:33:41.179Z,12.45
2022-12-24T23:36:12.527Z,12.66
2022-12-24T23:38:42.661Z,12.70
2022-12-24T23:41:12.827Z,12.75
2022-12-24T23:43:39.697Z,12.65
2022-12-24T23:46:09.739Z,12.08
2022-12-24T23:48:42.413Z,11.79
2022-12-24T23:51:13.763Z,11.53
2022-12-24T23:53:40.586Z,11.32
2022-12-24T23:56:08.571Z,11.17
2022-12-24T23:58:35.417Z,11.06
